This is the latest recevied weather packets stored in our database for station/object SQ7KHZ-10. If no packets are shown the sender has not sent any weather packets the latest 10 day(s).
| Time | Temp. | Humidity | Pressure | Rain* | Wind** | Luminosity | Snow |
|---|---|---|---|---|---|---|---|
| 1777232664 | 3.33° C | 61% | 1023 hPa | 0 mm | - | - | - |
| 1777231463 | 3.89° C | 60% | 1022.9 hPa | 0 mm | - | - | - |
| 1777230251 | 4.44° C | 59% | 1022.8 hPa | 0 mm | - | - | - |
| 1777229051 | 5.56° C | 54% | 1022.7 hPa | 0 mm | - | - | - |
| 1777227826 | 6.67° C | 45% | 1022.4 hPa | 0 mm | - | - | - |
| 1777226626 | 7.78° C | 42% | 1022.2 hPa | 0 mm | - | - | - |
| 1777225425 | 8.33° C | 40% | 1021.9 hPa | 0 mm | - | - | - |
| 1777224205 | 8.89° C | 39% | 1021.7 hPa | 0 mm | - | - | - |
| 1777222996 | 9.44° C | 36% | 1021.5 hPa | 0 mm | - | - | - |
| 1777221787 | 10° C | 34% | 1021.4 hPa | 0 mm | - | - | - |
| 1777220580 | 10.56° C | 35% | 1021.3 hPa | 0 mm | - | - | - |
| 1777219370 | 11.11° C | 33% | 1021.1 hPa | 0 mm | - | - | - |
| 1777218159 | 10° C | 38% | 1021.1 hPa | 0 mm | - | - | - |
| 1777216950 | 10.56° C | 38% | 1021.1 hPa | 0 mm | - | - | - |
| 1777215726 | 11.11° C | 36% | 1020.9 hPa | 0 mm | - | - | - |
| 1777214516 | 10.56° C | 37% | 1020.8 hPa | 0 mm | - | - | - |
| 1777213304 | 10.56° C | 38% | 1020.7 hPa | 0 mm | - | - | - |
| 1777212094 | 10° C | 38% | 1020.6 hPa | 0 mm | - | - | - |
| 1777210884 | 10.56° C | 38% | 1020.4 hPa | 0 mm | - | - | - |
| 1777209659 | 10° C | 40% | 1020.4 hPa | 0 mm | - | - | - |
| 1777208376 | 10.56° C | 41% | 1020.3 hPa | 0 mm | - | - | - |
| 1777207160 | 10.56° C | 38% | 1020.3 hPa | 0 mm | - | - | - |
| 1777205952 | 9.44° C | 46% | 1020.2 hPa | 0 mm | - | - | - |
| 1777204718 | 10.56° C | 42% | 1019.8 hPa | 0 mm | - | - | - |
| 1777203508 | 9.44° C | 47% | 1019.9 hPa | 0 mm | - | - | - |
* Rain latest hour (hover to see other rain measurements)
** Current wind speed in m/s (hover to see current wind gust speed)